Time;durP1;ratioP1;P1;durP2;ratioP2;P2;SDS_P1;SDS_P2;PMS_P1;PMS_P2;Temp;Humidity;BMP_temperature;BMP_pressure;BME280_temperature;BME280_humidity;BME280_pressure;Samples;Min_cycle;Max_cycle;Signal;HPM_P1;HPM_P2
2022/11/05 00:19:06;;;;;;;32.23;19.02;;;;;;;17.06;96.56;98184.27;4297565;81;28467;-86
2022/11/05 00:25:13;;;;;;;33.15;19.62;;;;;;;17.10;96.97;98194.81;4286848;81;28478;-87
2022/11/05 00:31:14;;;;;;;32.23;18.87;;;;;;;17.10;96.88;98202.14;4301655;81;28493;-86
2022/11/05 00:37:16;;;;;;;33.65;18.55;;;;;;;17.05;97.29;98208.45;4304333;81;28509;-86
2022/11/05 00:49:37;;;;;;;31.35;19.30;;;;;;;16.90;98.10;98197.23;4272770;81;28498;-86
2022/11/05 00:55:44;;;;;;;31.17;18.48;;;;;;;16.80;99.41;98183.28;4303647;81;28481;-86
2022/11/05 01:01:45;;;;;;;36.08;19.87;;;;;;;16.82;100.00;98182.42;4285792;81;28555;-85
2022/11/05 01:07:46;;;;;;;34.50;21.65;;;;;;;16.50;100.00;98202.94;4290093;80;28450;-85
2022/11/05 01:13:48;;;;;;;39.45;21.25;;;;;;;16.51;100.00;98212.69;4309044;81;28467;-86
2022/11/05 01:19:49;;;;;;;37.23;20.62;;;;;;;16.90;100.00;98216.24;4290476;81;28501;-86
2022/11/05 01:25:50;;;;;;;37.45;21.33;;;;;;;16.22;100.00;98227.69;4304941;81;28573;-86
2022/11/05 01:31:53;;;;;;;40.88;22.20;;;;;;;16.34;100.00;98238.12;4304393;81;28522;-86
2022/11/05 01:37:54;;;;;;;36.48;20.30;;;;;;;16.79;100.00;98239.20;4236679;81;28589;-86
2022/11/05 01:43:58;;;;;;;32.67;20.02;;;;;;;16.85;100.00;98237.48;4315282;81;28523;-86
2022/11/05 01:50:05;;;;;;;37.85;21.35;;;;;;;16.87;99.72;98246.70;4306362;81;28513;-84
2022/11/05 01:56:20;;;;;;;35.85;19.85;;;;;;;16.71;100.00;98241.48;4303479;81;28503;-85
2022/11/05 02:02:24;;;;;;;36.10;20.40;;;;;;;16.64;100.00;98253.78;4279567;81;28477;-84
2022/11/05 02:08:55;;;;;;;37.80;21.10;;;;;;;16.45;100.00;98259.95;4301138;81;28443;-84
2022/11/05 02:14:57;;;;;;;36.53;21.17;;;;;;;16.70;100.00;98263.48;4262516;81;28577;-84
2022/11/05 02:21:29;;;;;;;36.93;20.82;;;;;;;16.54;100.00;98280.50;4289028;81;28455;-85
2022/11/05 02:28:10;;;;;;;36.17;21.50;;;;;;;16.50;100.00;98280.27;4259877;81;28477;-84
2022/11/05 02:34:23;;;;;;;33.98;19.77;;;;;;;16.71;100.00;98288.16;4250182;81;28491;-85
2022/11/05 02:40:39;;;;;;;34.25;20.15;;;;;;;16.96;97.90;98284.85;4295041;82;28553;-86
2022/11/05 02:46:57;;;;;;;34.37;19.77;;;;;;;16.95;96.95;98301.71;4297183;81;28567;-86
2022/11/05 02:53:12;;;;;;;26.50;15.90;;;;;;;16.54;98.93;98318.48;4297462;81;28510;-86
2022/11/05 02:59:13;;;;;;;19.87;11.78;;;;;;;16.52;98.43;98328.83;4295532;81;28548;-84
2022/11/05 03:05:15;;;;;;;16.02;9.88;;;;;;;15.84;99.24;98344.30;4297509;81;28571;-86
2022/11/05 03:11:27;;;;;;;15.45;10.23;;;;;;;16.27;95.91;98363.23;4295361;81;28469;-86
2022/11/05 03:18:04;;;;;;;7.40;4.83;;;;;;;16.18;97.57;98377.96;4244590;82;28537;-85
2022/11/05 03:24:17;;;;;;;4.97;3.33;;;;;;;15.77;89.86;98387.73;4259931;81;28462;-86
2022/11/05 03:30:19;;;;;;;5.25;3.60;;;;;;;15.31;88.26;98397.19;4280111;82;28445;-85
2022/11/05 03:36:26;;;;;;;5.35;3.35;;;;;;;15.82;88.20;98395.28;4282278;81;28535;-85
2022/11/05 03:42:32;;;;;;;4.00;3.47;;;;;;;15.92;86.66;98408.53;4278503;81;28440;-86
2022/11/05 03:48:39;;;;;;;3.37;3.07;;;;;;;15.79;85.50;98420.25;4245571;81;28502;-86
2022/11/05 03:54:40;;;;;;;4.17;2.90;;;;;;;15.68;85.94;98421.40;4237964;81;33889;-86
2022/11/05 04:00:41;;;;;;;3.92;3.22;;;;;;;15.82;83.26;98423.74;4292300;82;28573;-86
2022/11/05 04:25:41;;;;;;;4.85;3.67;;;;;;;15.21;84.15;98435.70;4235696;82;28477;-87
2022/11/05 04:31:43;;;;;;;7.20;3.75;;;;;;;15.14;84.51;98454.93;4255768;81;28486;-82
2022/11/05 04:37:44;;;;;;;6.80;4.05;;;;;;;15.57;83.20;98448.55;4273768;81;28490;-82
2022/11/05 04:43:45;;;;;;;6.80;3.90;;;;;;;15.65;81.16;98448.50;4297368;81;28487;-82
2022/11/05 04:49:46;;;;;;;5.35;3.30;;;;;;;15.52;80.15;98455.89;4297987;81;28481;-82
2022/11/05 04:55:48;;;;;;;4.08;3.12;;;;;;;15.58;80.11;98456.94;4292077;81;28554;-81
2022/11/05 05:01:52;;;;;;;3.70;2.67;;;;;;;15.60;79.48;98464.24;4299085;81;28517;-83
2022/11/05 05:07:54;;;;;;;2.40;2.15;;;;;;;15.51;77.72;98470.50;4289900;81;28517;-83
2022/11/05 05:13:55;;;;;;;2.55;2.15;;;;;;;15.59;77.84;98487.54;4312206;81;28500;-84
2022/11/05 05:26:16;;;;;;;2.08;1.70;;;;;;;15.61;77.17;98501.61;4296533;81;28479;-79
2022/11/05 05:32:17;;;;;;;1.87;1.67;;;;;;;15.64;77.28;98505.14;4294190;81;28493;-79
2022/11/05 05:38:18;;;;;;;3.17;1.80;;;;;;;15.59;78.52;98511.92;4294605;81;28549;-79
2022/11/05 05:44:20;;;;;;;1.90;1.60;;;;;;;15.71;77.25;98517.03;4290237;81;28581;-80
2022/11/05 05:50:21;;;;;;;2.27;1.80;;;;;;;15.53;78.28;98517.91;4296316;81;28632;-80
2022/11/05 05:56:25;;;;;;;2.10;1.70;;;;;;;15.74;77.29;98524.06;4207125;83;28501;-79
2022/11/05 06:02:28;;;;;;;2.92;1.82;;;;;;;15.51;78.25;98536.88;4215426;83;28590;-79
2022/11/05 06:08:30;;;;;;;2.67;1.87;;;;;;;15.55;78.27;98553.66;4209760;83;28539;-88
2022/11/05 06:14:32;;;;;;;2.45;2.00;;;;;;;15.54;78.48;98556.66;4206179;83;28481;-85
2022/11/05 06:20:33;;;;;;;2.42;2.05;;;;;;;15.41;80.80;98568.35;4238632;83;28461;-84
2022/11/05 06:26:41;;;;;;;2.72;2.08;;;;;;;15.53;82.14;98569.38;4190694;83;28489;-85
2022/11/05 06:32:38;;;;;;;3.05;2.40;;;;;;;15.38;83.70;98588.39;4203005;83;28472;-87
2022/11/05 06:38:39;;;;;;;4.67;2.60;;;;;;;15.58;83.74;98600.54;4216411;83;28462;-87
2022/11/05 06:44:41;;;;;;;3.85;2.25;;;;;;;15.58;84.05;98608.67;4215985;83;28496;-85
2022/11/05 06:50:45;;;;;;;4.37;2.80;;;;;;;15.54;84.83;98607.58;4260083;82;28515;-86
2022/11/05 06:56:47;;;;;;;4.08;2.75;;;;;;;15.49;86.59;98621.15;4229608;82;28477;-86
2022/11/05 07:02:49;;;;;;;4.17;2.83;;;;;;;15.27;89.14;98629.56;4226277;82;28484;-89
2022/11/05 07:08:50;;;;;;;3.15;2.70;;;;;;;15.45;88.27;98642.55;4229781;81;28476;-87
2022/11/05 07:14:53;;;;;;;3.90;3.08;;;;;;;15.47;88.59;98651.21;4247380;82;28463;-85
2022/11/05 07:20:54;;;;;;;5.75;2.90;;;;;;;15.36;89.65;98659.08;4282941;81;28493;-87
2022/11/05 07:26:56;;;;;;;4.62;2.80;;;;;;;15.41;89.80;98669.92;4268777;82;28480;-86
2022/11/05 07:32:57;;;;;;;3.08;2.75;;;;;;;15.44;90.66;98671.26;4269826;82;28556;-86
2022/11/05 07:39:01;;;;;;;4.58;2.85;;;;;;;15.52;90.21;98679.41;4221641;84;28444;-87
2022/11/05 07:45:04;;;;;;;3.95;2.77;;;;;;;15.64;90.23;98689.93;4306672;81;28552;-86
2022/11/05 07:51:05;;;;;;;5.90;3.08;;;;;;;15.53;90.31;98689.15;4303183;81;28494;-86
2022/11/05 07:57:10;;;;;;;4.70;3.00;;;;;;;15.54;90.14;98688.86;4319220;81;28469;-84
2022/11/05 08:03:14;;;;;;;4.37;3.08;;;;;;;15.37;90.38;98686.44;4149128;83;28436;-83
2022/11/05 08:09:18;;;;;;;5.47;3.37;;;;;;;15.56;90.36;98691.30;4146589;83;28481;-84
2022/11/05 08:15:20;;;;;;;4.37;3.47;;;;;;;15.65;89.55;98695.09;4165715;83;28552;-86
2022/11/05 08:21:24;;;;;;;4.78;3.42;;;;;;;15.66;89.39;98704.02;4151131;84;28452;-84
2022/11/05 08:27:25;;;;;;;6.10;4.05;;;;;;;15.55;89.55;98704.03;4196299;83;28543;-84
2022/11/05 08:33:28;;;;;;;4.58;4.08;;;;;;;15.46;90.10;98712.42;4169595;83;28493;-83
2022/11/05 08:39:29;;;;;;;5.17;4.08;;;;;;;15.66;89.77;98712.97;4285450;81;28461;-86
2022/11/05 08:45:31;;;;;;;6.20;4.55;;;;;;;15.45;92.13;98722.47;4301798;81;28448;-86
2022/11/05 08:51:33;;;;;;;6.25;5.05;;;;;;;15.57;90.91;98733.56;4277726;81;28462;-88
2022/11/05 08:57:38;;;;;;;9.03;6.00;;;;;;;15.72;89.86;98740.34;4191530;82;28453;-89
2022/11/05 09:03:47;;;;;;;7.78;6.30;;;;;;;15.70;88.98;98745.77;4153029;84;28460;-85
2022/11/05 09:09:51;;;;;;;9.18;6.65;;;;;;;15.73;88.84;98744.68;4174950;84;28581;-85
2022/11/05 09:15:58;;;;;;;7.93;6.77;;;;;;;15.56;89.38;98747.64;4197269;82;28461;-87
2022/11/05 09:21:59;;;;;;;9.08;6.55;;;;;;;15.67;89.70;98747.64;4196411;84;28462;-87
2022/11/05 09:28:11;;;;;;;8.18;6.12;;;;;;;15.55;89.64;98754.70;4219027;83;28503;-88
2022/11/05 09:34:13;;;;;;;8.70;6.40;;;;;;;15.60;90.09;98756.88;4217983;83;28481;-87
2022/11/05 09:40:16;;;;;;;9.60;6.67;;;;;;;15.84;88.07;98771.78;4217386;83;28500;-86
2022/11/05 09:46:25;;;;;;;8.18;6.30;;;;;;;15.93;87.42;98776.95;4198751;83;28508;-87
2022/11/05 09:52:45;;;;;;;7.97;6.47;;;;;;;16.03;87.31;98780.17;4219092;83;28511;-87
2022/11/05 09:59:04;;;;;;;8.63;6.25;;;;;;;15.99;86.60;98777.75;4249425;81;28485;-87
2022/11/05 10:05:10;;;;;;;8.10;6.15;;;;;;;16.19;86.66;98780.13;4229374;82;28508;-88
2022/11/05 10:11:20;;;;;;;9.63;6.60;;;;;;;16.19;85.37;98786.91;4229103;82;28452;-84
2022/11/05 10:17:31;;;;;;;9.18;6.83;;;;;;;16.10;85.97;98796.98;4225599;82;28465;-85
2022/11/05 10:23:33;;;;;;;9.20;6.67;;;;;;;16.03;86.19;98794.53;4229826;82;28512;-85
2022/11/05 10:29:38;;;;;;;8.90;6.80;;;;;;;16.11;85.92;98798.61;4225529;82;28455;-90
2022/11/05 10:35:45;;;;;;;8.25;6.25;;;;;;;16.44;84.74;98803.67;4266366;80;28469;-86
2022/11/05 10:42:28;;;;;;;8.65;6.80;;;;;;;16.34;84.30;98800.98;4299001;80;28526;-86
2022/11/05 10:49:35;;;;;;;8.93;6.97;;;;;;;16.39;83.95;98816.70;4264265;81;28512;-86
2022/11/05 10:55:49;;;;;;;9.53;7.08;;;;;;;16.34;84.69;98819.98;4281278;81;28524;-88
2022/11/05 11:02:15;;;;;;;8.63;6.58;;;;;;;16.50;83.83;98820.75;4186931;85;28523;-87
2022/11/05 11:08:22;;;;;;;8.88;6.85;;;;;;;16.67;83.94;98828.59;4209503;83;28457;-86
2022/11/05 11:14:24;;;;;;;8.15;6.53;;;;;;;16.63;83.28;98822.91;4182385;83;28563;-85
2022/11/05 11:20:31;;;;;;;10.03;7.55;;;;;;;16.45;83.37;98835.97;4133331;84;28504;-86
2022/11/05 11:26:41;;;;;;;9.93;7.25;;;;;;;16.28;84.60;98835.45;4130255;84;28485;-88
2022/11/05 11:32:43;;;;;;;10.00;7.55;;;;;;;16.16;84.74;98841.19;4155821;83;28453;-88
2022/11/05 11:38:45;;;;;;;10.10;7.65;;;;;;;16.08;85.50;98839.02;4149954;84;28489;-88
2022/11/05 11:44:47;;;;;;;10.40;7.87;;;;;;;16.29;85.95;98843.33;4178996;84;28436;-85
2022/11/05 11:50:53;;;;;;;10.43;7.80;;;;;;;16.25;85.47;98849.04;4109307;84;28498;-87
2022/11/05 11:57:00;;;;;;;13.50;8.83;;;;;;;16.28;85.09;98847.66;4154591;84;28500;-87
2022/11/05 12:03:34;;;;;;;12.68;8.20;;;;;;;16.39;85.69;98856.05;4043176;85;28467;-87
2022/11/05 12:09:59;;;;;;;12.00;8.33;;;;;;;16.39;86.05;98864.19;4176811;82;28488;-83
2022/11/05 12:16:14;;;;;;;14.65;9.20;;;;;;;16.50;85.85;98867.70;4295073;81;28497;-84
2022/11/05 12:22:42;;;;;;;14.28;9.03;;;;;;;16.44;85.60;98872.33;4224515;83;28441;-85
2022/11/05 12:29:30;;;;;;;14.07;8.85;;;;;;;16.54;85.92;98869.33;4302397;81;28474;-84
2022/11/05 12:35:52;;;;;;;14.87;9.93;;;;;;;16.61;85.59;98877.19;4292326;81;28471;-82
2022/11/05 12:42:05;;;;;;;12.60;8.85;;;;;;;16.62;85.43;98885.59;4311162;81;28449;-84
2022/11/05 12:49:01;;;;;;;13.48;9.23;;;;;;;16.52;86.88;98893.22;4311876;81;28510;-83
2022/11/05 12:55:16;;;;;;;12.82;9.33;;;;;;;16.63;85.59;98891.28;4258019;81;28474;-84
2022/11/05 13:01:31;;;;;;;16.20;9.80;;;;;;;16.70;85.20;98885.03;4188044;83;28517;-84
2022/11/05 13:07:52;;;;;;;11.93;8.77;;;;;;;16.38;87.03;98892.97;4180030;83;28502;-83
2022/11/05 13:14:21;;;;;;;13.10;9.75;;;;;;;16.42;87.73;98897.58;4168557;82;28460;-83
2022/11/05 13:20:27;;;;;;;14.00;10.15;;;;;;;16.52;86.54;98897.30;4060133;86;28524;-85
2022/11/05 13:26:32;;;;;;;;;;;;;;;16.43;86.71;98907.87;4163296;84;28463;-86
2022/11/05 13:32:38;;;;;;;16.45;11.35;;;;;;;16.44;88.06;98916.27;4141928;85;20249;-86
2022/11/05 13:38:59;;;;;;;15.45;11.40;;;;;;;16.37;87.91;98927.41;4166394;85;28468;-84
2022/11/05 13:45:44;;;;;;;16.17;10.28;;;;;;;16.45;87.23;98921.97;4066989;85;28506;-85
2022/11/05 13:52:18;;;;;;;19.80;12.50;;;;;;;16.53;87.24;98928.77;4065899;84;28461;-84
2022/11/05 13:58:50;;;;;;;16.50;11.53;;;;;;;16.28;88.39;98935.81;4123573;84;28538;-82
2022/11/05 14:05:07;;;;;;;16.77;10.90;;;;;;;16.39;88.88;98944.22;4162811;84;28593;-80
2022/11/05 14:11:33;;;;;;;19.73;11.93;;;;;;;16.41;88.80;98956.17;4199766;83;28504;-78
2022/11/05 14:17:57;;;;;;;17.20;12.15;;;;;;;16.59;88.18;98954.80;4193443;83;28466;-83
2022/11/05 14:24:24;;;;;;;18.60;12.60;;;;;;;16.57;87.26;98969.19;4221677;82;28471;-84
2022/11/05 14:30:50;;;;;;;17.27;11.53;;;;;;;16.45;88.63;98981.13;4192955;82;28518;-83
2022/11/05 14:37:11;;;;;;;;;;;;;;;16.30;89.83;98994.70;4222815;82;28491;-83
2022/11/05 14:43:25;;;;;;;18.87;11.88;;;;;;;16.29;89.64;99002.02;4222201;83;20267;-83
2022/11/05 14:49:34;;;;;;;18.00;12.55;;;;;;;16.15;90.75;98996.86;4226390;82;28452;-84
2022/11/05 14:55:41;;;;;;;17.75;11.48;;;;;;;16.34;89.63;98998.50;4228168;82;28505;-86
2022/11/05 15:01:51;;;;;;;17.42;11.08;;;;;;;16.21;91.13;99010.69;4185728;82;28442;-82
2022/11/05 15:07:57;;;;;;;16.80;10.95;;;;;;;16.15;91.66;99015.84;4144372;84;28481;-87
2022/11/05 15:14:07;;;;;;;18.75;11.68;;;;;;;15.67;94.74;99018.64;4287562;81;28553;-85
2022/11/05 15:20:13;;;;;;;17.10;11.65;;;;;;;16.08;92.91;99024.77;4291266;81;28456;-88
2022/11/05 15:26:35;;;;;;;17.45;11.97;;;;;;;16.20;91.81;99029.96;4300681;81;28439;-91
2022/11/05 15:32:38;;;;;;;17.10;11.28;;;;;;;16.24;90.70;99037.82;4178664;83;28504;-85
2022/11/05 15:38:40;;;;;;;18.82;11.97;;;;;;;16.13;91.58;99045.94;4187777;83;28464;-85
2022/11/05 15:44:52;;;;;;;17.40;11.65;;;;;;;15.94;93.85;99054.28;4163437;83;28449;-84
2022/11/05 15:50:53;;;;;;;16.37;11.63;;;;;;;16.06;93.75;99065.70;4135508;83;28489;-85
2022/11/05 15:56:58;;;;;;;16.75;11.18;;;;;;;15.69;94.07;99065.29;4167304;84;28573;-85
2022/11/05 16:03:26;;;;;;;17.90;11.05;;;;;;;15.86;95.63;99077.28;4096509;84;28480;-85
2022/11/05 16:09:31;;;;;;;18.85;11.50;;;;;;;15.81;94.36;99082.66;4279539;82;28451;-84
2022/11/05 16:15:34;;;;;;;13.53;9.48;;;;;;;15.97;92.56;99076.27;4298089;80;28489;-85
2022/11/05 16:21:52;;;;;;;13.00;9.00;;;;;;;15.95;92.28;99085.73;4279960;81;28514;-85
2022/11/05 16:28:01;;;;;;;11.15;7.70;;;;;;;15.10;96.15;99090.12;4252349;80;28599;-87
2022/11/05 16:34:02;;;;;;;10.80;7.12;;;;;;;14.68;100.00;99089.77;4250379;82;28465;-85
2022/11/05 16:40:19;;;;;;;10.23;6.97;;;;;;;14.35;100.00;99097.03;4261690;82;28513;-86
2022/11/05 16:46:25;;;;;;;10.38;6.72;;;;;;;14.41;100.00;99106.02;4279567;82;28486;-81
2022/11/05 16:52:29;;;;;;;11.03;7.62;;;;;;;14.85;99.21;99118.64;4255793;82;28500;-80
2022/11/05 16:58:37;;;;;;;12.00;8.00;;;;;;;14.98;96.44;99126.33;4279474;80;28474;-85
2022/11/05 17:04:38;;;;;;;11.90;8.58;;;;;;;15.21;96.65;99134.37;4197702;83;28478;-87
2022/11/05 17:10:39;;;;;;;13.28;8.25;;;;;;;15.04;98.26;99145.58;4138858;84;28494;-85
2022/11/05 17:16:41;;;;;;;11.40;8.45;;;;;;;14.98;98.18;99151.22;4261575;81;28467;-85
2022/11/05 17:22:44;;;;;;;12.10;8.35;;;;;;;15.30;96.06;99160.70;4290222;80;28523;-81
2022/11/05 17:28:45;;;;;;;12.18;7.67;;;;;;;15.00;97.13;99162.08;4258148;82;28488;-82
2022/11/05 17:34:47;;;;;;;11.43;7.70;;;;;;;15.19;96.98;99174.68;4256861;82;28510;-81
2022/11/05 17:40:49;;;;;;;11.40;7.65;;;;;;;15.24;94.90;99178.52;4249534;81;28527;-84
2022/11/05 17:46:50;;;;;;;11.38;8.38;;;;;;;15.45;93.15;99191.14;4277571;82;28512;-84
2022/11/05 17:52:51;;;;;;;11.50;7.85;;;;;;;15.24;93.85;99179.33;4268731;81;28556;-82
2022/11/05 17:58:54;;;;;;;12.13;8.70;;;;;;;14.69;96.67;99183.41;4275495;82;28569;-82
2022/11/05 18:04:55;;;;;;;14.10;9.00;;;;;;;14.97;96.17;99187.48;4254399;81;28481;-83
2022/11/05 18:10:57;;;;;;;11.50;7.75;;;;;;;15.36;93.98;99188.64;4278255;81;28529;-83
2022/11/05 18:17:01;;;;;;;10.50;7.55;;;;;;;14.71;95.13;99194.78;4273858;81;28512;-82
2022/11/05 18:23:03;;;;;;;10.82;6.80;;;;;;;14.28;96.96;99208.64;4274771;82;28472;-84
2022/11/05 18:29:05;;;;;;;9.93;6.80;;;;;;;14.77;91.94;99218.16;4262735;81;28456;-82
2022/11/05 18:35:07;;;;;;;11.85;6.72;;;;;;;14.79;92.60;99211.16;4258284;83;28628;-84
2022/11/05 18:41:09;;;;;;;10.45;6.62;;;;;;;14.91;90.73;99213.70;4262680;82;28485;-84
2022/11/05 18:47:10;;;;;;;9.45;6.28;;;;;;;14.99;90.80;99213.23;4300163;80;28461;-83
2022/11/05 18:53:13;;;;;;;9.15;5.83;;;;;;;15.28;88.89;99229.73;4267888;82;28440;-85
2022/11/05 18:59:17;;;;;;;11.78;6.28;;;;;;;15.38;87.84;99233.09;4227064;83;28488;-84
2022/11/05 19:05:18;;;;;;;9.10;6.03;;;;;;;15.52;86.89;99237.54;4236612;83;28448;-85
2022/11/05 19:11:23;;;;;;;10.70;6.12;;;;;;;15.52;86.25;99241.60;4197247;83;28489;-83
2022/11/05 19:17:24;;;;;;;11.30;6.20;;;;;;;15.59;86.57;99247.60;4230546;82;28585;-84
2022/11/05 19:23:25;;;;;;;10.60;6.87;;;;;;;15.66;87.90;99259.05;4231936;83;28462;-83
2022/11/05 19:29:27;;;;;;;18.00;8.88;;;;;;;15.65;88.15;99260.66;4236231;83;28479;-84
2022/11/05 19:35:28;;;;;;;14.58;9.50;;;;;;;15.71;86.60;99265.05;4236561;83;28505;-84
2022/11/05 19:41:29;;;;;;;15.78;10.13;;;;;;;15.82;85.63;99274.05;4118865;85;28536;-82
2022/11/05 19:47:31;;;;;;;13.78;10.00;;;;;;;15.77;84.71;99274.83;4143540;85;28564;-83
2022/11/05 19:53:42;;;;;;;18.00;10.40;;;;;;;15.82;84.92;99287.08;4133271;85;28563;-84
2022/11/05 19:59:45;;;;;;;15.88;10.23;;;;;;;15.83;84.86;99283.84;4207390;83;28471;-84
2022/11/05 20:05:50;;;;;;;16.10;11.43;;;;;;;15.60;84.67;99298.84;4185041;83;28424;-84
2022/11/05 20:11:57;;;;;;;16.25;10.63;;;;;;;15.81;84.68;99300.89;4211487;83;28495;-85
2022/11/05 20:18:15;;;;;;;;;;;;;;;;;;;;;
2022/11/05 20:24:20;;;;;;;18.50;11.88;;;;;;;15.58;85.33;99317.26;4195214;84;28483;-85
2022/11/05 20:30:25;;;;;;;19.15;12.65;;;;;;;;;;4219867;82;28505;-84
2022/11/05 20:36:37;;;;;;;19.65;12.13;;;;;;;15.75;84.55;99340.16;4213272;82;28455;-85
2022/11/05 20:42:40;;;;;;;18.90;12.45;;;;;;;15.71;84.20;99350.42;4193051;82;28490;-85
2022/11/05 20:48:52;;;;;;;21.77;12.75;;;;;;;15.55;84.82;99361.11;4182536;82;28497;-84
2022/11/05 20:55:02;;;;;;;18.67;11.88;;;;;;;15.39;86.39;99364.75;4208360;83;28510;-83
2022/11/05 21:01:04;;;;;;;21.40;13.03;;;;;;;15.66;85.00;99361.20;4197788;83;28464;-83
2022/11/05 21:07:19;;;;;;;22.60;13.60;;;;;;;15.63;85.16;99366.63;4219327;82;28503;-84
2022/11/05 21:13:22;;;;;;;18.90;11.88;;;;;;;15.46;85.79;99371.59;4202573;83;28500;-85
2022/11/05 21:19:23;;;;;;;24.00;11.75;;;;;;;15.22;85.08;99367.00;4193204;83;28518;-84
2022/11/05 21:25:25;;;;;;;20.75;12.13;;;;;;;15.50;84.78;99371.91;4198172;83;28477;-84
2022/11/05 21:31:31;;;;;;;20.25;11.10;;;;;;;15.45;85.08;99374.55;4221875;83;28527;-91
2022/11/05 21:44:04;;;;;;;16.45;10.03;;;;;;;15.53;84.77;99370.59;4203797;83;28563;-89
2022/11/05 21:50:13;;;;;;;15.20;8.95;;;;;;;15.49;84.77;99372.98;4199685;84;28505;-90
2022/11/05 22:04:20;;;;;;;;;;;;;;;;;;;;;
2022/11/05 22:10:49;;;;;;;18.95;10.85;;;;;;;15.52;85.83;99391.44;4001439;86;28535;-88
2022/11/05 22:17:17;;;;;;;19.02;11.50;;;;;;;15.52;84.33;99398.20;3864730;89;28470;-89
2022/11/05 22:23:31;;;;;;;19.67;11.38;;;;;;;15.62;84.65;99388.03;3960313;85;28464;-89
2022/11/05 22:36:52;;;;;;;20.45;12.03;;;;;;;15.41;86.82;99403.23;4181882;82;28515;-88
2022/11/05 22:43:18;;;;;;;17.60;12.30;;;;;;;15.55;86.06;99403.66;4198866;83;28636;-91
2022/11/05 22:56:53;;;;;;;23.83;13.32;;;;;;;15.22;90.12;99402.21;4021398;86;28523;-89
2022/11/05 23:30:02;;;;;;;28.77;16.20;;;;;;;15.30;91.05;99410.42;4193965;82;28504;-87
2022/11/05 23:48:46;;;;;;;26.07;15.75;;;;;;;15.23;92.33;99403.05;4200221;82;28458;-85
2022/11/05 23:54:48;;;;;;;31.00;16.52;;;;;;;15.34;90.28;99402.09;4208151;82;28531;-85
